Time,TemperatureF,DewpointF,PressureIn,WindDirection,WindDirectionDegrees,WindSpeedMPH,WindSpeedGustMPH,Humidity,HourlyPrecipIn,Conditions,Clouds,dailyrainin,SoftwareType,DateUTC
2013-03-13 09:45:00,29.0,27.5,30.07,SW,225,4.0,14.0,94,0.00,,,0.00,Weather View 32 v70,2013-03-13 13:45:00,
2013-03-13 12:00:00,30.0,26.9,30.09,NW,315,17.0,23.0,88,0.00,,,0.00,Weather View 32 v70,2013-03-13 16:00:00,
2013-03-13 12:15:00,28.0,25.2,30.10,WSW,247,6.0,23.0,89,0.01,,,0.01,Weather View 32 v70,2013-03-13 16:15:00,
2013-03-13 12:30:00,31.0,25.9,30.10,South,180,7.0,23.0,81,0.01,,,0.01,Weather View 32 v70,2013-03-13 16:30:00,
2013-03-13 12:45:00,32.0,26.2,30.10,South,180,4.0,23.0,79,0.01,,,0.01,Weather View 32 v70,2013-03-13 16:45:00,
2013-03-13 12:50:00,32.0,26.2,30.10,South,180,4.0,23.0,79,0.01,,,0.01,Weather View 32 v70,2013-03-13 16:50:00,
2013-03-13 13:00:00,32.0,23.3,30.08,West,270,10.0,23.0,70,0.01,,,0.01,Weather View 32 v70,2013-03-13 17:00:00,
2013-03-13 13:15:00,33.0,23.9,30.09,SW,225,9.0,20.0,69,0.00,,,0.01,Weather View 32 v70,2013-03-13 17:15:00,
2013-03-13 13:30:00,34.0,22.7,30.08,WSW,247,2.0,20.0,63,0.00,,,0.01,Weather View 32 v70,2013-03-13 17:30:00,
2013-03-13 13:45:00,29.0,27.2,30.10,West,270,20.0,20.0,93,0.00,,,0.01,Weather View 32 v70,2013-03-13 17:45:00,
2013-03-13 13:51:00,29.0,27.2,30.10,West,270,20.0,20.0,93,0.00,,,0.01,Weather View 32 v70,2013-03-13 17:51:00,
2013-03-13 14:00:00,28.0,26.5,30.12,WNW,292,9.0,20.0,94,0.00,,,0.01,Weather View 32 v70,2013-03-13 18:00:00,
2013-03-13 14:15:00,28.0,26.5,30.12,SW,225,10.0,20.0,94,0.00,,,0.01,Weather View 32 v70,2013-03-13 18:15:00,
2013-03-13 14:30:00,29.0,27.2,30.12,NW,315,4.0,20.0,93,0.00,,,0.01,Weather View 32 v70,2013-03-13 18:30:00,
2013-03-13 14:45:00,28.0,26.0,30.12,WNW,292,10.0,23.0,92,0.00,,,0.01,Weather View 32 v70,2013-03-13 18:45:00,
2013-03-13 14:51:00,28.0,26.0,30.12,WNW,292,10.0,23.0,92,0.00,,,0.01,Weather View 32 v70,2013-03-13 18:51:00,
2013-03-13 15:00:00,26.0,24.5,30.14,WSW,247,6.0,23.0,94,0.00,,,0.01,Weather View 32 v70,2013-03-13 19:00:00,
2013-03-13 15:15:00,28.0,25.4,30.14,SSW,202,12.0,23.0,90,0.00,,,0.01,Weather View 32 v70,2013-03-13 19:15:00,
2013-03-13 15:30:00,30.0,23.7,30.12,WSW,247,3.0,23.0,77,0.00,,,0.01,Weather View 32 v70,2013-03-13 19:30:00,
2013-03-13 15:45:00,30.0,24.6,30.13,NW,315,11.0,26.0,80,0.00,,,0.01,Weather View 32 v70,2013-03-13 19:45:00,
2013-03-13 15:52:00,30.0,24.6,30.13,NW,315,11.0,26.0,80,0.00,,,0.01,Weather View 32 v70,2013-03-13 19:52:00,
2013-03-13 16:00:00,30.0,21.7,30.13,West,270,3.0,26.0,71,0.01,,,0.02,Weather View 32 v70,2013-03-13 20:00:00,
2013-03-13 16:15:00,28.0,20.1,30.14,West,270,7.0,26.0,72,0.01,,,0.02,Weather View 32 v70,2013-03-13 20:15:00,
2013-03-13 16:30:00,28.0,20.5,30.16,South,180,2.0,26.0,73,0.01,,,0.02,Weather View 32 v70,2013-03-13 20:30:00,
2013-03-13 16:45:00,30.0,22.7,30.14,SSW,202,0.0,25.0,74,0.01,,,0.02,Weather View 32 v70,2013-03-13 20:45:00,
2013-03-13 16:52:00,30.0,22.7,30.14,SSW,202,0.0,25.0,74,0.01,,,0.02,Weather View 32 v70,2013-03-13 20:52:00,
2013-03-13 17:00:00,26.0,22.4,30.18,WSW,247,1.0,37.0,86,0.00,,,0.02,Weather View 32 v70,2013-03-13 21:00:00,
2013-03-13 17:15:00,27.0,22.2,30.18,SSE,157,4.0,37.0,82,0.00,,,0.02,Weather View 32 v70,2013-03-13 21:15:00,
2013-03-13 17:30:00,27.0,22.2,30.18,NE,45,3.0,37.0,82,0.00,,,0.02,Weather View 32 v70,2013-03-13 21:30:00,
2013-03-13 17:45:00,25.0,23.0,30.20,SW,225,9.0,37.0,92,0.00,,,0.02,Weather View 32 v70,2013-03-13 21:45:00,
2013-03-13 17:53:00,25.0,23.0,30.20,SW,225,9.0,37.0,92,0.00,,,0.02,Weather View 32 v70,2013-03-13 21:53:00,
2013-03-13 18:00:00,25.0,23.3,30.20,NW,315,5.0,17.0,93,0.00,,,0.02,Weather View 32 v70,2013-03-13 22:00:00,
2013-03-13 18:15:00,26.0,22.7,30.20,WNW,292,7.0,17.0,87,0.00,,,0.02,Weather View 32 v70,2013-03-13 22:15:00,
2013-03-13 18:30:00,26.0,21.5,30.20,SW,225,6.0,16.0,83,0.00,,,0.02,Weather View 32 v70,2013-03-13 22:30:00,
2013-03-13 18:45:00,26.0,22.1,30.20,West,270,4.0,16.0,85,0.00,,,0.02,Weather View 32 v70,2013-03-13 22:45:00,
2013-03-13 18:53:00,26.0,22.1,30.20,West,270,4.0,16.0,85,0.00,,,0.02,Weather View 32 v70,2013-03-13 22:53:00,
2013-03-13 19:00:00,25.0,23.0,30.22,West,270,5.0,18.0,92,0.00,,,0.02,Weather View 32 v70,2013-03-13 23:00:00,
2013-03-13 19:15:00,25.0,19.7,30.21,WNW,292,8.0,19.0,80,0.00,,,0.02,Weather View 32 v70,2013-03-13 23:15:00,
2013-03-13 19:30:00,25.0,19.4,30.22,SW,225,6.0,19.0,79,0.00,,,0.02,Weather View 32 v70,2013-03-13 23:30:00,
2013-03-13 19:45:00,25.0,19.4,30.22,West,270,6.0,19.0,79,0.00,,,0.02,Weather View 32 v70,2013-03-13 23:45:00,
2013-03-13 19:54:00,25.0,19.4,30.22,West,270,6.0,19.0,79,0.00,,,0.02,Weather View 32 v70,2013-03-13 23:54:00,
2013-03-13 20:00:00,24.0,18.4,30.23,NW,315,1.0,19.0,79,0.00,,,0.02,Weather View 32 v70,2013-03-14 00:00:00,
2013-03-13 20:15:00,24.0,18.7,30.22,SW,225,4.0,19.0,80,0.00,,,0.02,Weather View 32 v70,2013-03-14 00:15:00,
2013-03-13 20:30:00,24.0,19.3,30.23,WNW,292,6.0,16.0,82,0.00,,,0.02,Weather View 32 v70,2013-03-14 00:30:00,
2013-03-13 20:45:00,24.0,19.3,30.23,WSW,247,10.0,12.0,82,0.00,,,0.02,Weather View 32 v70,2013-03-14 00:45:00,
2013-03-13 20:54:00,24.0,19.3,30.23,WSW,247,10.0,12.0,82,0.00,,,0.02,Weather View 32 v70,2013-03-14 00:54:00,
2013-03-13 21:00:00,24.0,19.3,30.23,SW,225,3.0,15.0,82,0.00,,,0.02,Weather View 32 v70,2013-03-14 01:00:00,
2013-03-13 21:15:00,24.0,19.9,30.23,West,270,11.0,15.0,84,0.00,,,0.02,Weather View 32 v70,2013-03-14 01:15:00,
2013-03-13 21:30:00,24.0,19.6,30.24,WSW,247,2.0,15.0,83,0.00,,,0.02,Weather View 32 v70,2013-03-14 01:30:00,
2013-03-13 21:45:00,24.0,20.1,30.24,WNW,292,7.0,15.0,85,0.00,,,0.02,Weather View 32 v70,2013-03-14 01:45:00,
2013-03-13 22:00:00,24.0,19.9,30.24,SW,225,0.0,15.0,84,0.00,,,0.02,Weather View 32 v70,2013-03-14 02:00:00,
2013-03-13 22:15:00,24.0,21.5,30.25,NW,315,14.0,22.0,90,0.00,,,0.02,Weather View 32 v70,2013-03-14 02:15:00,
2013-03-13 22:30:00,23.0,21.3,30.26,WSW,247,10.0,22.0,93,0.00,,,0.02,Weather View 32 v70,2013-03-14 02:30:00,
2013-03-13 22:45:00,23.0,21.0,30.26,WSW,247,4.0,22.0,92,0.00,,,0.02,Weather View 32 v70,2013-03-14 02:45:00,
2013-03-13 23:00:00,23.0,21.3,30.26,WSW,247,8.0,22.0,93,0.00,,,0.02,Weather View 32 v70,2013-03-14 03:00:00,
2013-03-13 23:15:00,22.0,20.3,30.26,WSW,247,5.0,22.0,93,0.00,,,0.02,Weather View 32 v70,2013-03-14 03:15:00,
2013-03-13 23:30:00,22.0,20.3,30.26,WNW,292,12.0,17.0,93,0.00,,,0.02,Weather View 32 v70,2013-03-14 03:30:00,
2013-03-13 23:45:00,22.0,20.3,30.27,West,270,11.0,19.0,93,0.00,,,0.02,Weather View 32 v70,2013-03-14 03:45:00,